Check out our new PWSWeather beta!
PWSweather.com
Personal Weather Stations
Station Observations
IPORTUGA89
BarosaPT

BarosaPT

Lat: 39.754028, Lon: -8.843

Elevation: 98

Station Type: Davis Vp2

High Low Average
Temperature 60.6°F15.9°C 44.2°F6.8°C 52.8°F11.6°C
Dew Point 49.3°F9.6°C 42.3°F5.7°C 45.8°F7.7°C
Winds 13.0 mph 20.9 kmh Calm Calm 4.0 mph WNW6.4 kmh WNW
Wind Gusts 25.1 mph40.4 kmh -- 8.0 mph12.9 kmh
Humidity 93% 55% 78%
Pressure 30.40 in1029.5 mb 30.34 in1027.4 mb -
Precipitation 0.00 in0.0 mm - -
Hour Temp Dew Point Humidity Winds Wind Gusts Pressure Precip Precip Rate Daily Precip Total
12:02 AM 51.6°F10.9°C 46.0°F7.8°C 81% 2.0 mph NW3.2 kmh NW 4.0 mph6.4 kmh 30.39 in1029.1 mb 0.00 in0.0 mm 0.00 in0.0 mm 0.00 in0.0 mm
12:12 AM 51.6°F10.9°C 46.0°F7.8°C 81% 2.0 mph NW3.2 kmh NW 4.0 mph6.4 kmh 30.39 in1029.1 mb 0.00 in0.0 mm 0.00 in0.0 mm 0.00 in0.0 mm
12:22 AM 51.4°F10.8°C 45.9°F7.7°C 81% 2.0 mph NW3.2 kmh NW 4.0 mph6.4 kmh 30.38 in1028.8 mb 0.00 in0.0 mm 0.00 in0.0 mm 0.00 in0.0 mm
12:32 AM 51.3°F10.7°C 45.7°F7.6°C 81% 2.0 mph NW3.2 kmh NW 4.0 mph6.4 kmh 30.39 in1029.1 mb 0.00 in0.0 mm 0.00 in0.0 mm 0.00 in0.0 mm
12:43 AM 51.4°F10.8°C 45.9°F7.7°C 81% 0.9 mph NW1.4 kmh NW 4.9 mph7.9 kmh 30.38 in1028.8 mb 0.00 in0.0 mm 0.00 in0.0 mm 0.00 in0.0 mm
12:53 AM 51.4°F10.8°C 45.5°F7.5°C 80% 2.0 mph NW3.2 kmh NW 4.0 mph6.4 kmh 30.37 in1028.4 mb 0.00 in0.0 mm 0.00 in0.0 mm 0.00 in0.0 mm
01:03 AM 51.3°F10.7°C 45.7°F7.6°C 81% 2.0 mph NW3.2 kmh NW 2.9 mph4.7 kmh 30.37 in1028.4 mb 0.00 in0.0 mm 0.00 in0.0 mm 0.00 in0.0 mm
01:13 AM 51.1°F10.6°C 45.9°F7.7°C 82% 2.0 mph NW3.2 kmh NW 4.0 mph6.4 kmh 30.37 in1028.4 mb 0.00 in0.0 mm 0.00 in0.0 mm 0.00 in0.0 mm
01:23 AM 51.3°F10.7°C 46.0°F7.8°C 82% 2.0 mph NW3.2 kmh NW 4.0 mph6.4 kmh 30.37 in1028.4 mb 0.00 in0.0 mm 0.00 in0.0 mm 0.00 in0.0 mm
01:33 AM 51.4°F10.8°C 46.2°F7.9°C 82% 2.0 mph NW3.2 kmh NW 2.9 mph4.7 kmh 30.37 in1028.4 mb 0.00 in0.0 mm 0.00 in0.0 mm 0.00 in0.0 mm
01:43 AM 51.6°F10.9°C 46.0°F7.8°C 81% 0.9 mph NW1.4 kmh NW 2.9 mph4.7 kmh 30.37 in1028.4 mb 0.00 in0.0 mm 0.00 in0.0 mm 0.00 in0.0 mm
01:53 AM 51.6°F10.9°C 46.2°F7.9°C 82% Calm Calm 2.0 mph3.2 kmh 30.37 in1028.4 mb 0.00 in0.0 mm 0.00 in0.0 mm 0.00 in0.0 mm
02:03 AM 51.6°F10.9°C 46.6°F8.1°C 83% Calm Calm 2.0 mph3.2 kmh 30.37 in1028.4 mb 0.00 in0.0 mm 0.00 in0.0 mm 0.00 in0.0 mm
02:13 AM 51.4°F10.8°C 46.8°F8.2°C 84% 0.9 mph NW1.4 kmh NW 2.9 mph4.7 kmh 30.37 in1028.4 mb 0.00 in0.0 mm 0.00 in0.0 mm 0.00 in0.0 mm
02:24 AM 51.1°F10.6°C 46.4°F8.0°C 84% Calm Calm 2.0 mph3.2 kmh 30.37 in1028.4 mb 0.00 in0.0 mm 0.00 in0.0 mm 0.00 in0.0 mm
02:34 AM 50.2°F10.1°C 45.5°F7.5°C 84% Calm Calm -- 30.37 in1028.4 mb 0.00 in0.0 mm 0.00 in0.0 mm 0.00 in0.0 mm
02:44 AM 49.8°F9.9°C 45.5°F7.5°C 85% Calm Calm -- 30.37 in1028.4 mb 0.00 in0.0 mm 0.00 in0.0 mm 0.00 in0.0 mm
02:54 AM 50.0°F10.0°C 46.0°F7.8°C 86% Calm Calm -- 30.36 in1028.1 mb 0.00 in0.0 mm 0.00 in0.0 mm 0.00 in0.0 mm
03:04 AM 50.4°F10.2°C 46.4°F8.0°C 86% 0.9 mph NW1.4 kmh NW 4.0 mph6.4 kmh 30.35 in1027.8 mb 0.00 in0.0 mm 0.00 in0.0 mm 0.00 in0.0 mm
03:14 AM 50.5°F10.3°C 46.6°F8.1°C 86% 2.9 mph NW4.7 kmh NW 4.9 mph7.9 kmh 30.36 in1028.1 mb 0.00 in0.0 mm 0.00 in0.0 mm 0.00 in0.0 mm
03:24 AM 50.9°F10.5°C 46.6°F8.1°C 85% 2.0 mph NW3.2 kmh NW 6.0 mph9.7 kmh 30.35 in1027.8 mb 0.00 in0.0 mm 0.00 in0.0 mm 0.00 in0.0 mm
03:34 AM 51.1°F10.6°C 46.0°F7.8°C 83% 2.9 mph NW4.7 kmh NW 4.9 mph7.9 kmh 30.35 in1027.8 mb 0.00 in0.0 mm 0.00 in0.0 mm 0.00 in0.0 mm
03:44 AM 51.3°F10.7°C 46.0°F7.8°C 82% 2.9 mph NW4.7 kmh NW 4.9 mph7.9 kmh 30.35 in1027.8 mb 0.00 in0.0 mm 0.00 in0.0 mm 0.00 in0.0 mm
03:54 AM 51.4°F10.8°C 46.2°F7.9°C 82% 2.0 mph NW3.2 kmh NW 4.0 mph6.4 kmh 30.34 in1027.4 mb 0.00 in0.0 mm 0.00 in0.0 mm 0.00 in0.0 mm
04:04 AM 50.9°F10.5°C 45.7°F7.6°C 82% 2.0 mph NW3.2 kmh NW 2.9 mph4.7 kmh 30.34 in1027.4 mb 0.00 in0.0 mm 0.00 in0.0 mm 0.00 in0.0 mm
04:14 AM 50.5°F10.3°C 45.5°F7.5°C 83% 2.0 mph NW3.2 kmh NW 2.9 mph4.7 kmh 30.34 in1027.4 mb 0.00 in0.0 mm 0.00 in0.0 mm 0.00 in0.0 mm
04:25 AM 50.4°F10.2°C 45.3°F7.4°C 83% 0.9 mph NW1.4 kmh NW 2.9 mph4.7 kmh 30.34 in1027.4 mb 0.00 in0.0 mm 0.00 in0.0 mm 0.00 in0.0 mm
04:35 AM 50.4°F10.2°C 45.7°F7.6°C 84% Calm Calm -- 30.34 in1027.4 mb 0.00 in0.0 mm 0.00 in0.0 mm 0.00 in0.0 mm
04:45 AM 50.2°F10.1°C 45.9°F7.7°C 85% Calm Calm -- 30.34 in1027.4 mb 0.00 in0.0 mm 0.00 in0.0 mm 0.00 in0.0 mm
04:55 AM 50.0°F10.0°C 46.0°F7.8°C 86% Calm Calm -- 30.34 in1027.4 mb 0.00 in0.0 mm 0.00 in0.0 mm 0.00 in0.0 mm
05:05 AM 49.8°F9.9°C 45.9°F7.7°C 86% Calm Calm -- 30.34 in1027.4 mb 0.00 in0.0 mm 0.00 in0.0 mm 0.00 in0.0 mm
05:16 AM 50.2°F10.1°C 46.2°F7.9°C 86% Calm Calm -- 30.34 in1027.4 mb 0.00 in0.0 mm 0.00 in0.0 mm 0.00 in0.0 mm
05:26 AM 50.4°F10.2°C 46.6°F8.1°C 87% 0.9 mph NE1.4 kmh NE 6.0 mph9.7 kmh 30.35 in1027.8 mb 0.00 in0.0 mm 0.00 in0.0 mm 0.00 in0.0 mm
05:36 AM 50.2°F10.1°C 46.4°F8.0°C 87% Calm Calm 2.0 mph3.2 kmh 30.35 in1027.8 mb 0.00 in0.0 mm 0.00 in0.0 mm 0.00 in0.0 mm
05:46 AM 50.2°F10.1°C 46.4°F8.0°C 87% 2.0 mph NW3.2 kmh NW 4.9 mph7.9 kmh 30.35 in1027.8 mb 0.00 in0.0 mm 0.00 in0.0 mm 0.00 in0.0 mm
05:56 AM 50.9°F10.5°C 46.2°F7.9°C 84% 2.9 mph NNW4.7 kmh NNW 6.0 mph9.7 kmh 30.36 in1028.1 mb 0.00 in0.0 mm 0.00 in0.0 mm 0.00 in0.0 mm
06:06 AM 51.3°F10.7°C 46.2°F7.9°C 83% 4.0 mph N6.4 kmh N 6.0 mph9.7 kmh 30.36 in1028.1 mb 0.00 in0.0 mm 0.00 in0.0 mm 0.00 in0.0 mm
06:16 AM 51.4°F10.8°C 46.2°F7.9°C 82% 2.9 mph NNW4.7 kmh NNW 6.0 mph9.7 kmh 30.36 in1028.1 mb 0.00 in0.0 mm 0.00 in0.0 mm 0.00 in0.0 mm
06:26 AM 51.4°F10.8°C 46.2°F7.9°C 82% 4.0 mph N6.4 kmh N 8.1 mph13.0 kmh 30.37 in1028.4 mb 0.00 in0.0 mm 0.00 in0.0 mm 0.00 in0.0 mm
06:36 AM 51.4°F10.8°C 46.2°F7.9°C 82% 2.9 mph N4.7 kmh N 6.0 mph9.7 kmh 30.37 in1028.4 mb 0.00 in0.0 mm 0.00 in0.0 mm 0.00 in0.0 mm
06:46 AM 51.3°F10.7°C 46.2°F7.9°C 83% 2.9 mph NW4.7 kmh NW 4.9 mph7.9 kmh 30.37 in1028.4 mb 0.00 in0.0 mm 0.00 in0.0 mm 0.00 in0.0 mm
06:56 AM 51.1°F10.6°C 46.0°F7.8°C 83% 2.9 mph NW4.7 kmh NW 4.9 mph7.9 kmh 30.36 in1028.1 mb 0.00 in0.0 mm 0.00 in0.0 mm 0.00 in0.0 mm
07:06 AM 51.1°F10.6°C 46.4°F8.0°C 84% 2.9 mph NW4.7 kmh NW 4.9 mph7.9 kmh 30.36 in1028.1 mb 0.00 in0.0 mm 0.00 in0.0 mm 0.00 in0.0 mm
07:16 AM 51.1°F10.6°C 46.4°F8.0°C 84% 2.0 mph NW3.2 kmh NW 4.9 mph7.9 kmh 30.36 in1028.1 mb 0.00 in0.0 mm 0.00 in0.0 mm 0.00 in0.0 mm
07:26 AM 51.1°F10.6°C 46.8°F8.2°C 85% 2.0 mph NW3.2 kmh NW 4.0 mph6.4 kmh 30.35 in1027.8 mb 0.00 in0.0 mm 0.00 in0.0 mm 0.00 in0.0 mm
07:36 AM 51.1°F10.6°C 46.8°F8.2°C 85% 2.9 mph NW4.7 kmh NW 4.9 mph7.9 kmh 30.36 in1028.1 mb 0.00 in0.0 mm 0.00 in0.0 mm 0.00 in0.0 mm
07:46 AM 51.4°F10.8°C 47.1°F8.4°C 85% 2.9 mph NW4.7 kmh NW 8.1 mph13.0 kmh 30.37 in1028.4 mb 0.00 in0.0 mm 0.00 in0.0 mm 0.00 in0.0 mm
07:56 AM 51.4°F10.8°C 47.1°F8.4°C 85% 4.0 mph NW6.4 kmh NW 8.9 mph14.3 kmh 30.37 in1028.4 mb 0.00 in0.0 mm 0.00 in0.0 mm 0.00 in0.0 mm
08:07 AM 51.6°F10.9°C 47.3°F8.5°C 85% 4.9 mph NW7.9 kmh NW 8.9 mph14.3 kmh 30.37 in1028.4 mb 0.00 in0.0 mm 0.00 in0.0 mm 0.00 in0.0 mm
08:17 AM 52.2°F11.2°C 47.5°F8.6°C 84% 2.9 mph N4.7 kmh N 6.0 mph9.7 kmh 30.37 in1028.4 mb 0.00 in0.0 mm 0.00 in0.0 mm 0.00 in0.0 mm
08:27 AM 52.0°F11.1°C 47.3°F8.5°C 84% 4.0 mph NW6.4 kmh NW 8.9 mph14.3 kmh 30.37 in1028.4 mb 0.00 in0.0 mm 0.00 in0.0 mm 0.00 in0.0 mm
08:37 AM 52.2°F11.2°C 47.5°F8.6°C 84% 4.0 mph NNW6.4 kmh NNW 8.1 mph13.0 kmh 30.37 in1028.4 mb 0.00 in0.0 mm 0.00 in0.0 mm 0.00 in0.0 mm
08:47 AM 52.2°F11.2°C 47.5°F8.6°C 84% 4.0 mph N6.4 kmh N 12.1 mph19.5 kmh 30.38 in1028.8 mb 0.00 in0.0 mm 0.00 in0.0 mm 0.00 in0.0 mm
08:57 AM 52.3°F11.3°C 47.7°F8.7°C 84% 2.9 mph NNW4.7 kmh NNW 8.1 mph13.0 kmh 30.39 in1029.1 mb 0.00 in0.0 mm 0.00 in0.0 mm 0.00 in0.0 mm
09:07 AM 52.3°F11.3°C 47.7°F8.7°C 84% 4.0 mph N6.4 kmh N 8.9 mph14.3 kmh 30.39 in1029.1 mb 0.00 in0.0 mm 0.00 in0.0 mm 0.00 in0.0 mm
09:17 AM 52.9°F11.6°C 48.2°F9.0°C 84% 4.0 mph N6.4 kmh N 8.9 mph14.3 kmh 30.39 in1029.1 mb 0.00 in0.0 mm 0.00 in0.0 mm 0.00 in0.0 mm
09:27 AM 53.8°F12.1°C 49.1°F9.5°C 84% 4.9 mph NW7.9 kmh NW 8.9 mph14.3 kmh 30.39 in1029.1 mb 0.00 in0.0 mm 0.00 in0.0 mm 0.00 in0.0 mm
09:37 AM 54.0°F12.2°C 48.6°F9.2°C 82% 4.9 mph N7.9 kmh N 10.1 mph16.3 kmh 30.39 in1029.1 mb 0.00 in0.0 mm 0.00 in0.0 mm 0.00 in0.0 mm
09:47 AM 54.7°F12.6°C 49.3°F9.6°C 82% 6.0 mph NNW9.7 kmh NNW 12.1 mph19.5 kmh 30.40 in1029.5 mb 0.00 in0.0 mm 0.00 in0.0 mm 0.00 in0.0 mm
09:57 AM 55.4°F13.0°C 48.9°F9.4°C 79% 8.1 mph NNW13.0 kmh NNW 15.0 mph24.1 kmh 30.40 in1029.5 mb 0.00 in0.0 mm 0.00 in0.0 mm 0.00 in0.0 mm
10:07 AM 55.8°F13.2°C 48.4°F9.1°C 76% 10.1 mph 16.3 kmh 17.0 mph27.4 kmh 30.40 in1029.5 mb 0.00 in0.0 mm 0.00 in0.0 mm 0.00 in0.0 mm
10:17 AM 56.3°F13.5°C 48.6°F9.2°C 75% 8.1 mph N13.0 kmh N 12.1 mph19.5 kmh 30.40 in1029.5 mb 0.00 in0.0 mm 0.00 in0.0 mm 0.00 in0.0 mm
10:27 AM 57.0°F13.9°C 48.7°F9.3°C 74% 6.9 mph NNW11.1 kmh NNW 15.0 mph24.1 kmh 30.40 in1029.5 mb 0.00 in0.0 mm 0.00 in0.0 mm 0.00 in0.0 mm
10:37 AM 57.4°F14.1°C 46.9°F8.3°C 68% 8.1 mph N13.0 kmh N 21.0 mph33.8 kmh 30.40 in1029.5 mb 0.00 in0.0 mm 0.00 in0.0 mm 0.00 in0.0 mm
10:47 AM 57.2°F14.0°C 45.9°F7.7°C 66% 8.9 mph NW14.3 kmh NW 19.0 mph30.6 kmh 30.40 in1029.5 mb 0.00 in0.0 mm 0.00 in0.0 mm 0.00 in0.0 mm
10:57 AM 57.0°F13.9°C 46.2°F7.9°C 67% 11.0 mph N17.7 kmh N 21.9 mph35.2 kmh 30.40 in1029.5 mb 0.00 in0.0 mm 0.00 in0.0 mm 0.00 in0.0 mm
11:07 AM 56.8°F13.8°C 46.4°F8.0°C 68% 8.1 mph N13.0 kmh N 15.0 mph24.1 kmh 30.40 in1029.5 mb 0.00 in0.0 mm 0.00 in0.0 mm 0.00 in0.0 mm
11:17 AM 57.0°F13.9°C 46.9°F8.3°C 69% 6.0 mph N9.7 kmh N 13.0 mph20.9 kmh 30.40 in1029.5 mb 0.00 in0.0 mm 0.00 in0.0 mm 0.00 in0.0 mm
11:27 AM 57.0°F13.9°C 47.3°F8.5°C 70% 8.9 mph NNW14.3 kmh NNW 17.0 mph27.4 kmh 30.40 in1029.5 mb 0.00 in0.0 mm 0.00 in0.0 mm 0.00 in0.0 mm
11:37 AM 57.2°F14.0°C 47.5°F8.6°C 70% 8.9 mph NW14.3 kmh NW 17.0 mph27.4 kmh 30.39 in1029.1 mb 0.00 in0.0 mm 0.00 in0.0 mm 0.00 in0.0 mm
11:47 AM 57.7°F14.3°C 48.0°F8.9°C 70% 6.9 mph NW11.1 kmh NW 13.0 mph20.9 kmh 30.40 in1029.5 mb 0.00 in0.0 mm 0.00 in0.0 mm 0.00 in0.0 mm
11:57 AM 57.7°F14.3°C 47.7°F8.7°C 69% 10.1 mph NW16.3 kmh NW 17.9 mph28.8 kmh 30.39 in1029.1 mb 0.00 in0.0 mm 0.00 in0.0 mm 0.00 in0.0 mm
12:07 PM 57.2°F14.0°C 46.8°F8.2°C 68% 10.1 mph N16.3 kmh N 17.9 mph28.8 kmh 30.39 in1029.1 mb 0.00 in0.0 mm 0.00 in0.0 mm 0.00 in0.0 mm
12:17 PM 57.4°F14.1°C 47.3°F8.5°C 69% 8.9 mph NW14.3 kmh NW 14.1 mph22.7 kmh 30.39 in1029.1 mb 0.00 in0.0 mm 0.00 in0.0 mm 0.00 in0.0 mm
12:27 PM 57.6°F14.2°C 47.8°F8.8°C 70% 10.1 mph N16.3 kmh N 17.9 mph28.8 kmh 30.39 in1029.1 mb 0.00 in0.0 mm 0.00 in0.0 mm 0.00 in0.0 mm
12:37 PM 58.5°F14.7°C 48.4°F9.1°C 69% 8.1 mph NW13.0 kmh NW 17.9 mph28.8 kmh 30.38 in1028.8 mb 0.00 in0.0 mm 0.00 in0.0 mm 0.00 in0.0 mm
12:47 PM 58.8°F14.9°C 47.8°F8.8°C 67% 6.9 mph NNW11.1 kmh NNW 14.1 mph22.7 kmh 30.38 in1028.8 mb 0.00 in0.0 mm 0.00 in0.0 mm 0.00 in0.0 mm
12:57 PM 58.8°F14.9°C 47.1°F8.4°C 65% 11.0 mph NW17.7 kmh NW 19.9 mph32.0 kmh 30.38 in1028.8 mb 0.00 in0.0 mm 0.00 in0.0 mm 0.00 in0.0 mm
01:07 PM 59.4°F15.2°C 48.0°F8.9°C 66% 11.0 mph NW17.7 kmh NW 19.0 mph30.6 kmh 30.37 in1028.4 mb 0.00 in0.0 mm 0.00 in0.0 mm 0.00 in0.0 mm
01:17 PM 58.8°F14.9°C 47.8°F8.8°C 67% 13.0 mph N20.9 kmh N 25.1 mph40.4 kmh 30.37 in1028.4 mb 0.00 in0.0 mm 0.00 in0.0 mm 0.00 in0.0 mm
01:27 PM 58.5°F14.7°C 47.5°F8.6°C 67% 12.1 mph NW19.5 kmh NW 19.9 mph32.0 kmh 30.37 in1028.4 mb 0.00 in0.0 mm 0.00 in0.0 mm 0.00 in0.0 mm
01:37 PM 58.1°F14.5°C 47.7°F8.7°C 68% 10.1 mph NW16.3 kmh NW 19.0 mph30.6 kmh 30.36 in1028.1 mb 0.00 in0.0 mm 0.00 in0.0 mm 0.00 in0.0 mm
01:47 PM 57.9°F14.4°C 46.6°F8.1°C 66% 10.1 mph N16.3 kmh N 19.9 mph32.0 kmh 30.36 in1028.1 mb 0.00 in0.0 mm 0.00 in0.0 mm 0.00 in0.0 mm
01:57 PM 58.3°F14.6°C 46.2°F7.9°C 64% 8.9 mph NW14.3 kmh NW 17.0 mph27.4 kmh 30.36 in1028.1 mb 0.00 in0.0 mm 0.00 in0.0 mm 0.00 in0.0 mm
02:07 PM 59.0°F15.0°C 46.0°F7.8°C 62% 8.9 mph N14.3 kmh N 17.0 mph27.4 kmh 30.35 in1027.8 mb 0.00 in0.0 mm 0.00 in0.0 mm 0.00 in0.0 mm
02:17 PM 60.3°F15.7°C 46.4°F8.0°C 60% 6.9 mph NW11.1 kmh NW 15.0 mph24.1 kmh 30.34 in1027.4 mb 0.00 in0.0 mm 0.00 in0.0 mm 0.00 in0.0 mm
02:27 PM 60.4°F15.8°C 46.0°F7.8°C 59% 10.1 mph N16.3 kmh N 19.0 mph30.6 kmh 30.34 in1027.4 mb 0.00 in0.0 mm 0.00 in0.0 mm 0.00 in0.0 mm
02:37 PM 60.6°F15.9°C 45.3°F7.4°C 57% 10.1 mph NNW16.3 kmh NNW 21.9 mph35.2 kmh 30.34 in1027.4 mb 0.00 in0.0 mm 0.00 in0.0 mm 0.00 in0.0 mm
02:47 PM 60.6°F15.9°C 44.8°F7.1°C 56% 12.1 mph WNW19.5 kmh WNW 19.9 mph32.0 kmh 30.34 in1027.4 mb 0.00 in0.0 mm 0.00 in0.0 mm 0.00 in0.0 mm
02:57 PM 60.3°F15.7°C 45.5°F7.5°C 58% 10.1 mph W16.3 kmh W 19.0 mph30.6 kmh 30.34 in1027.4 mb 0.00 in0.0 mm 0.00 in0.0 mm 0.00 in0.0 mm
03:08 PM 60.4°F15.8°C 44.6°F7.0°C 56% 10.1 mph N16.3 kmh N 17.9 mph28.8 kmh 30.34 in1027.4 mb 0.00 in0.0 mm 0.00 in0.0 mm 0.00 in0.0 mm
03:18 PM 60.3°F15.7°C 45.0°F7.2°C 57% 10.1 mph NNW16.3 kmh NNW 17.9 mph28.8 kmh 30.34 in1027.4 mb 0.00 in0.0 mm 0.00 in0.0 mm 0.00 in0.0 mm
03:28 PM 60.3°F15.7°C 44.4°F6.9°C 56% 10.1 mph NW16.3 kmh NW 19.0 mph30.6 kmh 30.34 in1027.4 mb 0.00 in0.0 mm 0.00 in0.0 mm 0.00 in0.0 mm
03:38 PM 60.1°F15.6°C 43.9°F6.6°C 55% 11.0 mph W17.7 kmh W 19.9 mph32.0 kmh 30.35 in1027.8 mb 0.00 in0.0 mm 0.00 in0.0 mm 0.00 in0.0 mm
03:48 PM 59.5°F15.3°C 43.3°F6.3°C 55% 13.0 mph N20.9 kmh N 21.0 mph33.8 kmh 30.34 in1027.4 mb 0.00 in0.0 mm 0.00 in0.0 mm 0.00 in0.0 mm
03:58 PM 59.5°F15.3°C 44.2°F6.8°C 57% 8.9 mph WNW14.3 kmh WNW 17.9 mph28.8 kmh 30.34 in1027.4 mb 0.00 in0.0 mm 0.00 in0.0 mm 0.00 in0.0 mm
04:08 PM 59.4°F15.2°C 44.6°F7.0°C 58% 11.0 mph NNW17.7 kmh NNW 19.0 mph30.6 kmh 30.34 in1027.4 mb 0.00 in0.0 mm 0.00 in0.0 mm 0.00 in0.0 mm
04:18 PM 59.2°F15.1°C 44.4°F6.9°C 58% 10.1 mph WNW16.3 kmh WNW 19.0 mph30.6 kmh 30.34 in1027.4 mb 0.00 in0.0 mm 0.00 in0.0 mm 0.00 in0.0 mm
04:28 PM 58.8°F14.9°C 44.1°F6.7°C 58% 11.0 mph NW17.7 kmh NW 17.0 mph27.4 kmh 30.35 in1027.8 mb 0.00 in0.0 mm 0.00 in0.0 mm 0.00 in0.0 mm
04:38 PM 58.8°F14.9°C 44.1°F6.7°C 58% 8.9 mph N14.3 kmh N 16.1 mph25.9 kmh 30.35 in1027.8 mb 0.00 in0.0 mm 0.00 in0.0 mm 0.00 in0.0 mm
04:48 PM 58.8°F14.9°C 45.0°F7.2°C 60% 8.9 mph 14.3 kmh 16.1 mph25.9 kmh 30.35 in1027.8 mb 0.00 in0.0 mm 0.00 in0.0 mm 0.00 in0.0 mm
04:58 PM 58.8°F14.9°C 45.0°F7.2°C 60% 8.1 mph N13.0 kmh N 14.1 mph22.7 kmh 30.35 in1027.8 mb 0.00 in0.0 mm 0.00 in0.0 mm 0.00 in0.0 mm
05:08 PM 58.5°F14.7°C 45.1°F7.3°C 61% 6.9 mph NNW11.1 kmh NNW 15.0 mph24.1 kmh 30.35 in1027.8 mb 0.00 in0.0 mm 0.00 in0.0 mm 0.00 in0.0 mm
05:18 PM 57.7°F14.3°C 45.7°F7.6°C 64% 8.1 mph NW13.0 kmh NW 13.0 mph20.9 kmh 30.35 in1027.8 mb 0.00 in0.0 mm 0.00 in0.0 mm 0.00 in0.0 mm
05:28 PM 57.0°F13.9°C 46.2°F7.9°C 67% 6.0 mph NNW9.7 kmh NNW 12.1 mph19.5 kmh 30.35 in1027.8 mb 0.00 in0.0 mm 0.00 in0.0 mm 0.00 in0.0 mm
05:38 PM 56.3°F13.5°C 46.2°F7.9°C 69% 8.1 mph NW13.0 kmh NW 13.0 mph20.9 kmh 30.35 in1027.8 mb 0.00 in0.0 mm 0.00 in0.0 mm 0.00 in0.0 mm
05:48 PM 55.8°F13.2°C 46.6°F8.1°C 71% 6.0 mph NNW9.7 kmh NNW 13.0 mph20.9 kmh 30.35 in1027.8 mb 0.00 in0.0 mm 0.00 in0.0 mm 0.00 in0.0 mm
05:58 PM 55.4°F13.0°C 46.6°F8.1°C 72% 6.0 mph NW9.7 kmh NW 13.0 mph20.9 kmh 30.35 in1027.8 mb 0.00 in0.0 mm 0.00 in0.0 mm 0.00 in0.0 mm
06:08 PM 55.0°F12.8°C 46.6°F8.1°C 73% 4.9 mph NW7.9 kmh NW 10.1 mph16.3 kmh 30.35 in1027.8 mb 0.00 in0.0 mm 0.00 in0.0 mm 0.00 in0.0 mm
06:18 PM 54.5°F12.5°C 46.4°F8.0°C 74% 4.0 mph NW6.4 kmh NW 8.1 mph13.0 kmh 30.35 in1027.8 mb 0.00 in0.0 mm 0.00 in0.0 mm 0.00 in0.0 mm
06:28 PM 54.1°F12.3°C 46.4°F8.0°C 75% 2.9 mph N4.7 kmh N 8.1 mph13.0 kmh 30.35 in1027.8 mb 0.00 in0.0 mm 0.00 in0.0 mm 0.00 in0.0 mm
06:38 PM 53.1°F11.7°C 45.7°F7.6°C 76% 2.0 mph N3.2 kmh N 4.0 mph6.4 kmh 30.35 in1027.8 mb 0.00 in0.0 mm 0.00 in0.0 mm 0.00 in0.0 mm
06:48 PM 52.2°F11.2°C 45.9°F7.7°C 79% 2.0 mph NW3.2 kmh NW 4.9 mph7.9 kmh 30.35 in1027.8 mb 0.00 in0.0 mm 0.00 in0.0 mm 0.00 in0.0 mm
06:58 PM 51.4°F10.8°C 45.5°F7.5°C 80% 2.0 mph NW3.2 kmh NW 4.9 mph7.9 kmh 30.36 in1028.1 mb 0.00 in0.0 mm 0.00 in0.0 mm 0.00 in0.0 mm
07:08 PM 50.7°F10.4°C 45.5°F7.5°C 82% 2.0 mph NW3.2 kmh NW 2.9 mph4.7 kmh 30.36 in1028.1 mb 0.00 in0.0 mm 0.00 in0.0 mm 0.00 in0.0 mm
07:18 PM 50.2°F10.1°C 45.5°F7.5°C 84% 2.0 mph NW3.2 kmh NW 2.9 mph4.7 kmh 30.36 in1028.1 mb 0.00 in0.0 mm 0.00 in0.0 mm 0.00 in0.0 mm
07:28 PM 49.5°F9.7°C 45.1°F7.3°C 85% 0.9 mph NW1.4 kmh NW 2.9 mph4.7 kmh 30.37 in1028.4 mb 0.00 in0.0 mm 0.00 in0.0 mm 0.00 in0.0 mm
07:38 PM 48.7°F9.3°C 44.8°F7.1°C 86% 0.9 mph NW1.4 kmh NW 2.9 mph4.7 kmh 30.37 in1028.4 mb 0.00 in0.0 mm 0.00 in0.0 mm 0.00 in0.0 mm
07:48 PM 48.6°F9.2°C 44.6°F7.0°C 86% Calm Calm 2.0 mph3.2 kmh 30.37 in1028.4 mb 0.00 in0.0 mm 0.00 in0.0 mm 0.00 in0.0 mm
07:58 PM 47.8°F8.8°C 44.2°F6.8°C 87% Calm Calm -- 30.37 in1028.4 mb 0.00 in0.0 mm 0.00 in0.0 mm 0.00 in0.0 mm
08:08 PM 47.5°F8.6°C 44.1°F6.7°C 88% Calm Calm -- 30.37 in1028.4 mb 0.00 in0.0 mm 0.00 in0.0 mm 0.00 in0.0 mm
08:19 PM 47.1°F8.4°C 43.7°F6.5°C 88% Calm Calm -- 30.37 in1028.4 mb 0.00 in0.0 mm 0.00 in0.0 mm 0.00 in0.0 mm
08:29 PM 46.6°F8.1°C 43.5°F6.4°C 89% Calm Calm -- 30.37 in1028.4 mb 0.00 in0.0 mm 0.00 in0.0 mm 0.00 in0.0 mm
08:39 PM 46.6°F8.1°C 43.9°F6.6°C 90% Calm Calm -- 30.37 in1028.4 mb 0.00 in0.0 mm 0.00 in0.0 mm 0.00 in0.0 mm
08:49 PM 46.0°F7.8°C 43.3°F6.3°C 90% Calm Calm -- 30.37 in1028.4 mb 0.00 in0.0 mm 0.00 in0.0 mm 0.00 in0.0 mm
08:59 PM 45.9°F7.7°C 43.2°F6.2°C 90% Calm Calm -- 30.37 in1028.4 mb 0.00 in0.0 mm 0.00 in0.0 mm 0.00 in0.0 mm
09:09 PM 45.5°F7.5°C 43.0°F6.1°C 91% Calm Calm -- 30.38 in1028.8 mb 0.00 in0.0 mm 0.00 in0.0 mm 0.00 in0.0 mm
09:19 PM 45.7°F7.6°C 43.2°F6.2°C 91% Calm Calm -- 30.38 in1028.8 mb 0.00 in0.0 mm 0.00 in0.0 mm 0.00 in0.0 mm
09:30 PM 45.9°F7.7°C 43.3°F6.3°C 91% Calm Calm -- 30.39 in1029.1 mb 0.00 in0.0 mm 0.00 in0.0 mm 0.00 in0.0 mm
09:40 PM 46.2°F7.9°C 44.1°F6.7°C 92% Calm Calm -- 30.39 in1029.1 mb 0.00 in0.0 mm 0.00 in0.0 mm 0.00 in0.0 mm
09:50 PM 46.6°F8.1°C 44.4°F6.9°C 92% Calm Calm -- 30.39 in1029.1 mb 0.00 in0.0 mm 0.00 in0.0 mm 0.00 in0.0 mm
10:00 PM 46.6°F8.1°C 44.4°F6.9°C 92% Calm Calm -- 30.39 in1029.1 mb 0.00 in0.0 mm 0.00 in0.0 mm 0.00 in0.0 mm
10:10 PM 46.0°F7.8°C 43.9°F6.6°C 92% Calm Calm -- 30.39 in1029.1 mb 0.00 in0.0 mm 0.00 in0.0 mm 0.00 in0.0 mm
10:20 PM 45.3°F7.4°C 42.8°F6.0°C 91% Calm Calm -- 30.38 in1028.8 mb 0.00 in0.0 mm 0.00 in0.0 mm 0.00 in0.0 mm
10:30 PM 45.0°F7.2°C 42.8°F6.0°C 92% Calm Calm 2.0 mph3.2 kmh 30.38 in1028.8 mb 0.00 in0.0 mm 0.00 in0.0 mm 0.00 in0.0 mm
10:40 PM 44.6°F7.0°C 42.4°F5.8°C 92% Calm Calm 2.0 mph3.2 kmh 30.38 in1028.8 mb 0.00 in0.0 mm 0.00 in0.0 mm 0.00 in0.0 mm
10:50 PM 44.4°F6.9°C 42.3°F5.7°C 92% Calm Calm -- 30.38 in1028.8 mb 0.00 in0.0 mm 0.00 in0.0 mm 0.00 in0.0 mm
11:01 PM 44.8°F7.1°C 42.8°F6.0°C 93% Calm Calm -- 30.38 in1028.8 mb 0.00 in0.0 mm 0.00 in0.0 mm 0.00 in0.0 mm
11:11 PM 45.0°F7.2°C 42.8°F6.0°C 92% Calm Calm -- 30.38 in1028.8 mb 0.00 in0.0 mm 0.00 in0.0 mm 0.00 in0.0 mm
11:21 PM 44.8°F7.1°C 42.6°F5.9°C 92% Calm Calm -- 30.37 in1028.4 mb 0.00 in0.0 mm 0.00 in0.0 mm 0.00 in0.0 mm
11:31 PM 44.4°F6.9°C 42.4°F5.8°C 93% Calm Calm -- 30.37 in1028.4 mb 0.00 in0.0 mm 0.00 in0.0 mm 0.00 in0.0 mm
11:41 PM 44.4°F6.9°C 42.4°F5.8°C 93% Calm Calm -- 30.37 in1028.4 mb 0.00 in0.0 mm 0.00 in0.0 mm 0.00 in0.0 mm
11:51 PM 44.2°F6.8°C 42.3°F5.7°C 93% Calm Calm -- 30.37 in1028.4 mb 0.00 in0.0 mm 0.00 in0.0 mm 0.00 in0.0 mm